Time;durP1;ratioP1;P1;durP2;ratioP2;P2;SDS_P1;SDS_P2;PMS_P1;PMS_P2;Temp;Humidity;BMP_temperature;BMP_pressure;BME280_temperature;BME280_humidity;BME280_pressure;Samples;Min_cycle;Max_cycle;Signal;HPM_P1;HPM_P2
2022/02/18 00:00:37;;;;;;;8.07;2.08;;;10.90;69.20;;;;;;5009630;28;20116;-79
2022/02/18 00:03:04;;;;;;;8.18;2.90;;;10.90;69.30;;;;;;5027306;28;20503;-79
2022/02/18 00:05:30;;;;;;;13.90;3.65;;;10.90;69.30;;;;;;5010114;28;20041;-79
2022/02/18 00:07:56;;;;;;;9.40;2.72;;;10.90;69.30;;;;;;5027352;28;20037;-78
2022/02/18 00:10:22;;;;;;;11.73;3.17;;;10.90;69.30;;;;;;5009475;28;20167;-78
2022/02/18 00:12:48;;;;;;;9.07;2.38;;;10.90;69.30;;;;;;5001662;28;20067;-79
2022/02/18 00:15:14;;;;;;;10.05;2.75;;;10.90;69.30;;;;;;5009620;28;20544;-78
2022/02/18 00:17:40;;;;;;;8.65;2.40;;;10.90;69.30;;;;;;5026836;28;20037;-78
2022/02/18 00:20:07;;;;;;;9.13;2.60;;;10.90;69.30;;;;;;5044708;28;20120;-78
2022/02/18 00:22:34;;;;;;;11.48;2.80;;;10.90;69.30;;;;;;5047577;28;20575;-78
2022/02/18 00:25:00;;;;;;;11.52;3.38;;;10.90;69.30;;;;;;5029920;28;20032;-79
2022/02/18 00:27:26;;;;;;;9.68;3.38;;;10.90;69.30;;;;;;5030509;28;20037;-79
2022/02/18 00:29:52;;;;;;;9.55;2.42;;;11.00;69.40;;;;;;5029663;28;20445;-78
2022/02/18 00:32:19;;;;;;;11.10;3.55;;;10.90;69.30;;;;;;5047406;28;20106;-78
2022/02/18 00:34:45;;;;;;;7.10;2.20;;;10.90;69.20;;;;;;5029721;28;20040;-78
2022/02/18 00:37:11;;;;;;;9.00;3.20;;;10.90;69.20;;;;;;5012713;28;20025;-79
2022/02/18 00:39:37;;;;;;;13.00;2.90;;;10.90;69.30;;;;;;5028719;28;20418;-78
2022/02/18 00:42:04;;;;;;;9.18;2.25;;;10.90;69.30;;;;;;5013059;28;20025;-78
2022/02/18 00:44:30;;;;;;;6.80;2.50;;;10.90;69.30;;;;;;5046745;28;20028;-78
2022/02/18 00:46:57;;;;;;;8.57;2.88;;;10.90;69.30;;;;;;5029297;28;20051;-78
2022/02/18 00:49:23;;;;;;;8.13;3.83;;;11.00;69.50;;;;;;5037458;28;20057;-78
2022/02/18 00:51:51;;;;;;;10.80;2.45;;;10.90;69.30;;;;;;5012948;28;20025;-78
2022/02/18 00:54:17;;;;;;;13.57;4.00;;;10.90;69.30;;;;;;5029119;28;20029;-78
2022/02/18 00:56:44;;;;;;;8.48;2.83;;;11.00;69.50;;;;;;5028666;28;20430;-78
2022/02/18 00:59:10;;;;;;;7.72;2.60;;;10.90;69.30;;;;;;5028691;28;20534;-78
2022/02/18 01:01:37;;;;;;;8.15;2.83;;;11.00;69.50;;;;;;5047031;28;20461;-78
2022/02/18 01:04:04;;;;;;;6.03;2.45;;;11.00;69.60;;;;;;5031326;28;20032;-78
2022/02/18 01:06:30;;;;;;;9.13;3.00;;;11.00;69.60;;;;;;5048790;28;20120;-78
2022/02/18 01:08:57;;;;;;;8.73;2.88;;;10.90;69.40;;;;;;5029217;28;20029;-78
2022/02/18 01:11:23;;;;;;;5.95;2.40;;;11.00;69.60;;;;;;5033039;28;20025;-79
2022/02/18 01:13:49;;;;;;;11.63;2.10;;;11.00;69.60;;;;;;5051557;28;20032;-78
2022/02/18 01:16:16;;;;;;;9.38;2.25;;;11.00;69.60;;;;;;5050850;28;20029;-79
2022/02/18 01:18:42;;;;;;;8.93;3.13;;;11.00;69.60;;;;;;5049525;28;20525;-78
2022/02/18 01:21:10;;;;;;;4.90;1.73;;;11.00;69.70;;;;;;5050159;28;20029;-78
2022/02/18 01:23:36;;;;;;;7.35;1.60;;;11.00;69.60;;;;;;5032669;28;20075;-78
2022/02/18 01:26:06;;;;;;;6.90;2.03;;;11.00;69.60;;;;;;5032627;28;20490;-78
2022/02/18 01:28:32;;;;;;;7.88;1.58;;;11.00;69.50;;;;;;5032418;28;20766;-78
2022/02/18 01:30:58;;;;;;;5.07;2.42;;;11.00;69.50;;;;;;5016287;28;20028;-79
2022/02/18 01:33:25;;;;;;;5.03;2.78;;;11.00;69.60;;;;;;5032025;28;20091;-78
2022/02/18 01:35:51;;;;;;;8.15;1.73;;;11.00;69.60;;;;;;5032193;28;20395;-77
2022/02/18 01:38:17;;;;;;;5.75;1.35;;;11.00;69.60;;;;;;5031524;28;20102;-78
2022/02/18 01:40:44;;;;;;;5.22;1.73;;;11.00;69.60;;;;;;5031923;28;20476;-77
2022/02/18 01:43:11;;;;;;;6.60;1.67;;;11.00;69.60;;;;;;5032487;28;20087;-77
2022/02/18 01:45:38;;;;;;;6.25;1.65;;;11.10;69.80;;;;;;5049312;28;20039;-77
2022/02/18 01:48:04;;;;;;;5.68;2.58;;;11.00;69.60;;;;;;5028305;28;20049;-78
2022/02/18 01:50:30;;;;;;;5.93;2.15;;;11.00;69.60;;;;;;5029834;28;20076;-78
2022/02/18 01:52:58;;;;;;;7.55;2.28;;;11.10;69.80;;;;;;5029733;28;20388;-77
2022/02/18 01:55:25;;;;;;;3.65;1.50;;;11.00;69.60;;;;;;5020862;28;20041;-78
2022/02/18 01:57:56;;;;;;;3.88;1.13;;;11.10;69.80;;;;;;5029687;28;20064;-77
2022/02/18 02:00:26;;;;;;;3.55;1.13;;;11.10;69.90;;;;;;5029455;28;20037;-77
2022/02/18 02:02:54;;;;;;;5.43;1.40;;;11.10;69.80;;;;;;5029317;28;20013;-77
2022/02/18 02:05:21;;;;;;;6.07;1.15;;;11.10;69.80;;;;;;5029391;28;20092;-77
2022/02/18 02:07:49;;;;;;;3.53;1.05;;;11.10;69.90;;;;;;5011587;28;20031;-78
2022/02/18 02:10:17;;;;;;;4.03;1.00;;;11.10;69.80;;;;;;5027918;28;20069;-77
2022/02/18 02:12:53;;;;;;;5.82;1.70;;;11.20;70.00;;;;;;5028218;28;20060;-78
2022/02/18 02:15:30;;;;;;;3.10;1.02;;;11.20;70.00;;;;;;5027800;28;20314;-78
2022/02/18 02:18:01;;;;;;;4.63;1.65;;;11.10;69.80;;;;;;5028234;28;20571;-78
2022/02/18 02:20:28;;;;;;;4.32;2.38;;;11.20;70.00;;;;;;5027636;28;20029;-78
2022/02/18 02:22:54;;;;;;;3.10;1.20;;;11.20;70.00;;;;;;5027950;28;20065;-77
2022/02/18 02:25:21;;;;;;;2.55;1.02;;;11.20;69.90;;;;;;5027963;28;20528;-77
2022/02/18 02:27:49;;;;;;;3.67;0.93;;;11.20;70.00;;;;;;5027979;28;20041;-77
2022/02/18 02:30:15;;;;;;;1.70;0.88;;;11.30;70.10;;;;;;5019869;28;20033;-77
2022/02/18 02:32:41;;;;;;;2.50;0.77;;;11.30;70.10;;;;;;5028713;28;20048;-77
2022/02/18 02:35:08;;;;;;;2.58;1.17;;;11.30;70.10;;;;;;5028675;28;20029;-78
2022/02/18 02:37:37;;;;;;;3.10;1.05;;;11.30;70.10;;;;;;5027446;28;20116;-78
2022/02/18 02:40:18;;;;;;;2.38;0.98;;;11.30;70.10;;;;;;5027297;28;20029;-78
2022/02/18 02:42:46;;;;;;;4.55;1.10;;;11.30;70.10;;;;;;5027736;28;20091;-78
2022/02/18 02:45:13;;;;;;;3.88;1.20;;;11.40;70.30;;;;;;5026870;28;20036;-77
2022/02/18 02:47:44;;;;;;;4.15;1.20;;;11.40;70.30;;;;;;5013361;28;20045;-78
2022/02/18 02:50:25;;;;;;;3.55;1.30;;;11.40;70.30;;;;;;5030228;28;20795;-78
2022/02/18 02:52:58;;;;;;;3.38;1.30;;;11.40;70.30;;;;;;5030697;28;20049;-77
2022/02/18 02:55:24;;;;;;;2.67;0.93;;;11.40;70.30;;;;;;5030503;28;20025;-77
2022/02/18 02:57:50;;;;;;;2.83;1.00;;;11.40;70.30;;;;;;5031062;28;20080;-77
2022/02/18 03:00:18;;;;;;;2.47;0.90;;;11.40;70.30;;;;;;5014702;28;20033;-77
2022/02/18 03:02:45;;;;;;;3.00;1.08;;;11.50;70.50;;;;;;5030734;28;20032;-78
2022/02/18 03:05:13;;;;;;;2.00;0.70;;;11.50;70.40;;;;;;5030587;28;20021;-78
2022/02/18 03:07:40;;;;;;;3.70;0.95;;;11.60;70.60;;;;;;5021463;28;20503;-76
2022/02/18 03:10:20;;;;;;;0.98;0.75;;;11.60;70.60;;;;;;5030326;28;20514;-76
2022/02/18 03:12:47;;;;;;;3.00;0.88;;;11.60;70.50;;;;;;5030475;28;20476;-76
2022/02/18 03:15:14;;;;;;;2.17;0.70;;;11.70;70.70;;;;;;5030185;28;20037;-76
2022/02/18 03:17:41;;;;;;;3.53;0.90;;;11.70;70.60;;;;;;5013373;28;20069;-76
2022/02/18 03:20:26;;;;;;;;;;;11.70;70.60;;;;;;5030337;28;20086;-76
2022/02/18 03:22:53;;;;;;;2.90;1.23;;;11.80;70.80;;;;;;5030016;28;19909;-76
2022/02/18 03:25:19;;;;;;;1.30;0.70;;;11.80;70.60;;;;;;5029729;28;20033;-76
2022/02/18 03:27:46;;;;;;;2.17;0.63;;;11.80;70.70;;;;;;5030186;28;20513;-78
2022/02/18 03:30:16;;;;;;;2.35;0.60;;;11.80;70.70;;;;;;5029794;28;20503;-75
2022/02/18 03:32:44;;;;;;;1.35;0.60;;;11.80;70.70;;;;;;5029705;28;20576;-76
2022/02/18 03:35:10;;;;;;;2.38;0.90;;;11.90;70.90;;;;;;5032068;28;20099;-76
2022/02/18 03:37:39;;;;;;;2.17;0.70;;;11.90;70.90;;;;;;5029605;28;20031;-76
2022/02/18 03:40:22;;;;;;;2.13;0.60;;;11.90;71.40;;;;;;5016011;28;20030;-77
2022/02/18 03:42:48;;;;;;;0.95;0.55;;;11.90;70.90;;;;;;5030798;28;20182;-78
2022/02/18 03:45:14;;;;;;;1.27;0.45;;;11.90;70.90;;;;;;5013751;28;20040;-77
2022/02/18 03:47:41;;;;;;;1.27;0.68;;;11.90;71.00;;;;;;5013315;28;20084;-78
2022/02/18 03:50:11;;;;;;;1.48;0.63;;;11.90;71.00;;;;;;5029908;28;20112;-77
2022/02/18 03:52:38;;;;;;;3.33;0.47;;;12.00;71.20;;;;;;5013218;28;20511;-77
2022/02/18 03:55:06;;;;;;;3.22;1.00;;;12.00;71.20;;;;;;5020934;28;20080;-77
2022/02/18 03:57:34;;;;;;;2.47;0.57;;;12.00;71.20;;;;;;5029617;28;20306;-77
2022/02/18 04:00:00;;;;;;;1.27;0.57;;;12.00;71.20;;;;;;5012657;28;20033;-77
2022/02/18 04:02:26;;;;;;;1.08;0.75;;;12.10;71.30;;;;;;5012704;28;20048;-77
2022/02/18 04:04:53;;;;;;;2.03;0.70;;;12.10;71.30;;;;;;5029415;28;20116;-78
2022/02/18 04:07:44;;;;;;;4.18;1.15;;;12.10;71.30;;;;;;5029364;28;20405;-79
2022/02/18 04:10:10;;;;;;;1.10;0.40;;;12.10;71.20;;;;;;5013063;28;20033;-78
2022/02/18 04:12:36;;;;;;;1.10;0.73;;;12.20;71.40;;;;;;5030491;28;20033;-77
2022/02/18 04:15:15;;;;;;;0.80;0.40;;;12.20;71.30;;;;;;5031828;28;20034;-78
2022/02/18 04:17:41;;;;;;;3.30;0.80;;;12.20;71.30;;;;;;5031247;28;20133;-78
2022/02/18 04:20:17;;;;;;;0.75;0.50;;;12.20;71.30;;;;;;5015700;28;20033;-78
2022/02/18 04:22:55;;;;;;;1.58;0.50;;;12.20;71.30;;;;;;5030146;28;20030;-77
2022/02/18 04:25:28;;;;;;;1.40;0.70;;;12.20;71.30;;;;;;5029493;28;20556;-77
2022/02/18 04:27:59;;;;;;;1.15;0.70;;;12.20;71.30;;;;;;5031043;28;20044;-77
2022/02/18 04:30:26;;;;;;;1.80;0.73;;;12.30;71.50;;;;;;5030360;28;20025;-79
2022/02/18 04:32:52;;;;;;;3.15;0.50;;;12.30;71.60;;;;;;5030562;28;20029;-79
2022/02/18 04:35:19;;;;;;;0.90;0.40;;;12.30;71.60;;;;;;5030548;28;20029;-78
2022/02/18 04:37:46;;;;;;;0.95;0.50;;;12.30;71.60;;;;;;5029144;28;20029;-78
2022/02/18 04:40:14;;;;;;;2.88;1.75;;;12.30;71.70;;;;;;5030127;28;20395;-77
2022/02/18 04:42:41;;;;;;;0.98;0.80;;;12.30;71.70;;;;;;5030506;28;20091;-78
2022/02/18 04:45:08;;;;;;;1.08;0.68;;;12.30;71.70;;;;;;5030431;28;20510;-78
2022/02/18 04:47:35;;;;;;;0.77;0.43;;;12.30;71.70;;;;;;5049633;28;20416;-80
2022/02/18 04:50:03;;;;;;;1.20;0.75;;;12.30;71.80;;;;;;5054167;28;20025;-80
2022/02/18 04:52:30;;;;;;;0.98;0.30;;;12.30;71.80;;;;;;5054038;28;20033;-79
2022/02/18 04:54:56;;;;;;;0.73;0.22;;;12.30;71.80;;;;;;5054245;28;20063;-78
2022/02/18 04:57:22;;;;;;;1.05;0.45;;;12.30;71.80;;;;;;5036447;28;20036;-78
2022/02/18 04:59:48;;;;;;;0.70;0.65;;;12.30;71.80;;;;;;5053779;28;20123;-78
2022/02/18 05:02:16;;;;;;;1.02;0.32;;;12.30;71.80;;;;;;5053633;28;20025;-78
2022/02/18 05:04:43;;;;;;;1.48;0.50;;;12.30;71.80;;;;;;5053887;28;20029;-77
2022/02/18 05:07:09;;;;;;;0.52;0.40;;;12.30;71.80;;;;;;5019651;28;20032;-77
2022/02/18 05:09:36;;;;;;;0.73;0.40;;;12.30;71.80;;;;;;5053673;28;20415;-77
2022/02/18 05:12:03;;;;;;;2.10;0.68;;;12.30;71.80;;;;;;5053683;28;20036;-77
2022/02/18 05:14:29;;;;;;;1.15;0.73;;;12.40;72.00;;;;;;5019352;28;20052;-77
2022/02/18 05:16:55;;;;;;;1.10;0.40;;;12.40;72.00;;;;;;5053733;28;20476;-79
2022/02/18 05:19:21;;;;;;;1.90;0.45;;;12.40;72.10;;;;;;5051735;28;20079;-79
2022/02/18 05:21:47;;;;;;;0.40;0.30;;;12.30;72.40;;;;;;5037513;28;20254;-78
2022/02/18 05:24:13;;;;;;;0.73;0.40;;;12.40;72.10;;;;;;5032003;28;20037;-78
2022/02/18 05:26:39;;;;;;;0.75;0.30;;;12.30;72.00;;;;;;5015803;28;20121;-79
2022/02/18 05:29:05;;;;;;;0.30;0.30;;;12.30;72.00;;;;;;5033661;28;20040;-78
2022/02/18 05:31:31;;;;;;;1.50;0.70;;;12.30;72.10;;;;;;5043638;28;20083;-78
2022/02/18 05:33:57;;;;;;;1.33;0.30;;;12.30;72.10;;;;;;5025165;28;20053;-78
2022/02/18 05:36:24;;;;;;;0.30;0.20;;;12.30;72.10;;;;;;5039928;28;20701;-79
2022/02/18 05:38:50;;;;;;;0.82;0.35;;;12.30;72.10;;;;;;5040015;28;20102;-78
2022/02/18 05:41:16;;;;;;;0.63;0.52;;;12.30;72.20;;;;;;5044877;28;20615;-77
2022/02/18 05:43:43;;;;;;;1.67;0.30;;;12.30;72.20;;;;;;5033255;28;20072;-77
2022/02/18 05:46:09;;;;;;;0.50;0.22;;;12.30;72.20;;;;;;5033074;28;20041;-78
2022/02/18 05:48:36;;;;;;;0.75;0.30;;;12.30;72.30;;;;;;5029995;28;20041;-79
2022/02/18 05:51:04;;;;;;;0.93;0.30;;;12.30;72.30;;;;;;5030157;28;20029;-79
2022/02/18 05:53:33;;;;;;;0.32;0.30;;;12.30;72.30;;;;;;5020976;28;20029;-79
2022/02/18 05:55:59;;;;;;;1.00;0.30;;;12.30;72.30;;;;;;5029136;28;20033;-79
2022/02/18 05:58:26;;;;;;;0.30;0.20;;;12.30;72.40;;;;;;5029529;28;20044;-79
2022/02/18 06:00:52;;;;;;;2.10;0.50;;;12.30;72.30;;;;;;5011700;28;20032;-78
2022/02/18 06:03:18;;;;;;;1.33;0.47;;;12.30;72.30;;;;;;5011836;28;20392;-79
2022/02/18 06:05:44;;;;;;;2.10;0.50;;;12.30;72.40;;;;;;5011477;28;20141;-79
2022/02/18 06:08:11;;;;;;;3.10;0.80;;;12.30;72.30;;;;;;5029390;28;20574;-80
2022/02/18 06:10:37;;;;;;;5.38;1.67;;;12.30;72.30;;;;;;5029162;28;20025;-79
2022/02/18 06:13:03;;;;;;;7.68;1.30;;;12.30;72.30;;;;;;5049717;28;20098;-78
2022/02/18 06:15:30;;;;;;;4.05;1.02;;;12.30;72.30;;;;;;5031063;28;20677;-77
2022/02/18 06:17:57;;;;;;;2.92;1.15;;;12.30;72.30;;;;;;5031117;28;20507;-78
2022/02/18 06:20:24;;;;;;;5.03;1.25;;;12.30;72.30;;;;;;5037509;28;20124;-77
2022/02/18 06:22:50;;;;;;;5.90;1.00;;;12.30;72.30;;;;;;5040168;28;20664;-80
2022/02/18 06:25:16;;;;;;;6.72;2.10;;;12.20;72.10;;;;;;5028767;28;20022;-76
2022/02/18 06:27:43;;;;;;;6.70;1.95;;;12.30;72.20;;;;;;5039042;28;20466;-81
2022/02/18 06:30:11;;;;;;;7.35;1.70;;;12.20;72.00;;;;;;5038777;28;20033;-80
2022/02/18 06:32:37;;;;;;;7.63;2.65;;;12.20;72.00;;;;;;5011288;28;20061;-82
2022/02/18 06:35:04;;;;;;;19.10;2.75;;;12.20;72.00;;;;;;5043109;28;20115;-82
2022/02/18 06:37:30;;;;;;;11.40;2.10;;;12.10;71.80;;;;;;5027687;28;20790;-77
2022/02/18 06:39:56;;;;;;;10.18;2.78;;;12.10;71.80;;;;;;5011753;28;20033;-78
2022/02/18 06:42:23;;;;;;;15.52;2.67;;;12.10;71.70;;;;;;5028883;28;20084;-78
2022/02/18 06:44:49;;;;;;;11.95;3.47;;;12.10;71.70;;;;;;5019690;28;20077;-77
2022/02/18 06:47:15;;;;;;;17.55;2.85;;;12.10;71.60;;;;;;5044949;28;20056;-77
2022/02/18 06:49:44;;;;;;;15.88;5.25;;;12.10;71.70;;;;;;5030608;28;20033;-78
2022/02/18 06:52:11;;;;;;;14.13;2.90;;;12.10;71.60;;;;;;5013985;28;20030;-77
2022/02/18 06:54:37;;;;;;;11.60;3.70;;;12.10;71.50;;;;;;5028688;28;20416;-77
2022/02/18 06:57:05;;;;;;;12.45;3.38;;;12.00;71.30;;;;;;5028604;28;20057;-78
2022/02/18 06:59:31;;;;;;;17.10;3.72;;;12.00;71.30;;;;;;5020846;28;20037;-76
2022/02/18 07:01:57;;;;;;;18.35;3.75;;;12.00;71.10;;;;;;5029048;28;20146;-77
2022/02/18 07:04:24;;;;;;;19.65;3.60;;;12.00;71.10;;;;;;5024405;28;20117;-77
2022/02/18 07:06:51;;;;;;;17.23;2.90;;;12.00;71.00;;;;;;5012541;28;20030;-79
2022/02/18 07:09:19;;;;;;;12.30;3.20;;;12.00;70.90;;;;;;5046929;28;20053;-76
2022/02/18 07:11:45;;;;;;;18.77;4.43;;;12.00;70.90;;;;;;5048331;28;20040;-75
2022/02/18 07:14:14;;;;;;;18.15;3.63;;;11.90;70.70;;;;;;5047369;28;20036;-74
2022/02/18 07:16:42;;;;;;;17.30;4.53;;;11.90;70.60;;;;;;5045234;28;20036;-79
2022/02/18 07:19:12;;;;;;;13.52;3.38;;;11.90;70.50;;;;;;5016096;28;20049;-79
2022/02/18 07:21:38;;;;;;;14.30;3.25;;;11.80;70.30;;;;;;5025056;28;20029;-81
2022/02/18 07:24:09;;;;;;;14.45;3.65;;;11.80;70.90;;;;;;5027814;28;20029;-82
2022/02/18 07:26:35;;;;;;;17.23;4.65;;;11.80;70.30;;;;;;5028134;28;20030;-80
2022/02/18 07:29:01;;;;;;;14.57;4.43;;;11.80;70.30;;;;;;5036790;28;20061;-81
2022/02/18 07:31:28;;;;;;;14.95;3.45;;;11.80;70.30;;;;;;5029079;28;20235;-83
2022/02/18 07:33:54;;;;;;;13.88;3.58;;;11.70;70.10;;;;;;5050267;28;20025;-80
2022/02/18 07:36:21;;;;;;;12.88;3.20;;;11.70;70.10;;;;;;5032034;28;20094;-81
2022/02/18 07:38:47;;;;;;;15.88;3.40;;;11.70;70.00;;;;;;5031368;28;20563;-81
2022/02/18 07:41:13;;;;;;;17.02;3.70;;;11.70;70.00;;;;;;5031350;28;20036;-87
2022/02/18 07:43:40;;;;;;;16.08;2.92;;;11.70;70.00;;;;;;5040077;28;20033;-81
2022/02/18 07:46:06;;;;;;;17.42;3.60;;;11.60;69.80;;;;;;5028413;28;20033;-80
2022/02/18 07:48:32;;;;;;;15.73;3.70;;;11.60;69.80;;;;;;5027979;28;20033;-81
2022/02/18 07:50:58;;;;;;;14.00;4.35;;;11.60;69.80;;;;;;5028052;28;20040;-81
2022/02/18 07:53:25;;;;;;;15.68;3.63;;;11.60;70.30;;;;;;5045065;28;20029;-81
2022/02/18 07:55:51;;;;;;;15.48;3.53;;;11.60;69.70;;;;;;5029614;28;20032;-82
2022/02/18 07:58:17;;;;;;;16.35;3.28;;;11.60;69.70;;;;;;5023472;28;20045;-81
2022/02/18 08:00:43;;;;;;;11.77;3.83;;;11.60;69.60;;;;;;5027166;28;20049;-80
2022/02/18 08:03:09;;;;;;;14.18;3.85;;;11.60;69.60;;;;;;5027434;28;20076;-82
2022/02/18 08:05:35;;;;;;;16.08;3.70;;;11.50;69.40;;;;;;5027139;28;20030;-81
2022/02/18 08:08:02;;;;;;;11.98;3.20;;;11.50;69.30;;;;;;5027318;28;20064;-81
2022/02/18 08:10:28;;;;;;;16.13;3.58;;;11.60;69.40;;;;;;5026996;28;20449;-83
2022/02/18 08:12:54;;;;;;;12.88;3.05;;;11.50;69.10;;;;;;5027734;28;20075;-83
2022/02/18 08:15:21;;;;;;;17.00;3.85;;;11.60;69.30;;;;;;4993208;28;20037;-80
2022/02/18 08:17:47;;;;;;;16.52;4.30;;;11.60;69.20;;;;;;5026802;28;20037;-80
2022/02/18 08:20:13;;;;;;;16.15;4.53;;;11.60;69.10;;;;;;4992076;28;20392;-79
2022/02/18 08:22:40;;;;;;;12.15;2.88;;;11.60;69.00;;;;;;5027858;28;20236;-87
2022/02/18 08:25:08;;;;;;;16.77;4.82;;;11.70;69.10;;;;;;5027956;28;20033;-85
2022/02/18 08:27:35;;;;;;;15.13;3.47;;;11.70;69.00;;;;;;4994355;28;20033;-84
2022/02/18 08:30:02;;;;;;;15.18;4.13;;;11.70;69.00;;;;;;5029393;28;20076;-84
2022/02/18 08:32:28;;;;;;;13.13;3.85;;;11.70;68.90;;;;;;5010520;28;20029;-87
2022/02/18 08:34:56;;;;;;;14.90;3.50;;;11.70;68.80;;;;;;5027801;28;20036;-86
2022/02/18 08:37:22;;;;;;;12.13;3.28;;;11.70;68.70;;;;;;5026627;28;20034;-85
2022/02/18 08:39:48;;;;;;;12.88;3.30;;;11.70;68.60;;;;;;5027429;28;20065;-82
2022/02/18 08:42:14;;;;;;;15.95;4.25;;;11.80;68.70;;;;;;5030515;28;20029;-81
2022/02/18 08:44:40;;;;;;;12.20;3.97;;;11.70;68.50;;;;;;5027309;28;20687;-81
2022/02/18 08:47:07;;;;;;;14.48;3.15;;;11.70;68.40;;;;;;5028494;28;20063;-80
2022/02/18 08:49:34;;;;;;;14.25;3.70;;;11.70;68.40;;;;;;5028251;28;20091;-80
2022/02/18 08:52:00;;;;;;;14.88;3.65;;;11.70;68.30;;;;;;5033360;28;20033;-80
2022/02/18 08:54:27;;;;;;;11.93;3.20;;;11.80;68.40;;;;;;5034073;28;20083;-81
2022/02/18 08:56:53;;;;;;;17.92;4.85;;;11.80;68.30;;;;;;5013809;28;20021;-80
2022/02/18 08:59:19;;;;;;;11.02;2.83;;;11.80;68.30;;;;;;5046329;28;20064;-81
2022/02/18 09:01:47;;;;;;;14.43;3.40;;;11.90;68.40;;;;;;5028706;28;20029;-80
2022/02/18 09:04:13;;;;;;;14.05;3.22;;;11.80;68.10;;;;;;5029186;28;20032;-80
2022/02/18 09:06:40;;;;;;;17.60;4.50;;;11.90;68.20;;;;;;5046452;28;20029;-81
2022/02/18 09:09:06;;;;;;;12.05;3.55;;;11.90;68.10;;;;;;5018489;28;20033;-79
2022/02/18 09:11:32;;;;;;;13.52;3.55;;;12.00;68.10;;;;;;5019275;28;20115;-80
2022/02/18 09:13:58;;;;;;;15.88;4.55;;;12.10;68.00;;;;;;5025868;28;20533;-80
2022/02/18 09:16:25;;;;;;;17.17;3.75;;;12.10;67.80;;;;;;5007879;28;20534;-81
2022/02/18 09:18:57;;;;;;;16.80;3.35;;;12.10;67.60;;;;;;5019447;28;20037;-81
2022/02/18 09:21:23;;;;;;;13.60;4.03;;;12.20;67.50;;;;;;5045383;28;20029;-80
2022/02/18 09:23:49;;;;;;;17.13;4.45;;;12.30;67.50;;;;;;5039891;28;20030;-80
2022/02/18 09:26:18;;;;;;;15.77;4.80;;;12.30;67.30;;;;;;5044487;28;20807;-81
2022/02/18 09:28:44;;;;;;;13.27;2.72;;;12.30;67.10;;;;;;5018168;28;20040;-82
2022/02/18 09:31:11;;;;;;;16.30;2.92;;;12.40;67.20;;;;;;5027122;28;20036;-90
2022/02/18 09:33:37;;;;;;;18.92;4.60;;;12.40;67.00;;;;;;5012662;28;20068;-81
2022/02/18 09:36:04;;;;;;;16.50;3.08;;;12.40;66.80;;;;;;5030254;28;20038;-80
2022/02/18 09:38:30;;;;;;;16.35;4.47;;;12.60;66.90;;;;;;5011712;28;20059;-80
2022/02/18 09:40:58;;;;;;;13.27;3.53;;;12.60;66.60;;;;;;5012001;28;20017;-82
2022/02/18 09:43:24;;;;;;;18.80;4.78;;;12.70;66.60;;;;;;5012963;28;20029;-85
2022/02/18 09:45:51;;;;;;;16.38;3.42;;;12.70;66.40;;;;;;5011711;28;20120;-83
2022/02/18 09:48:18;;;;;;;13.13;3.60;;;12.80;66.40;;;;;;5029271;28;20041;-85
2022/02/18 09:50:44;;;;;;;14.85;4.65;;;12.80;66.20;;;;;;5029846;28;20029;-81
2022/02/18 09:53:10;;;;;;;11.65;3.65;;;12.90;66.10;;;;;;5029477;28;20045;-80
2022/02/18 09:55:39;;;;;;;13.23;3.13;;;13.00;66.00;;;;;;4995870;28;20033;-80
2022/02/18 09:58:05;;;;;;;10.45;2.80;;;13.00;65.80;;;;;;5011413;28;20052;-80
2022/02/18 10:00:32;;;;;;;12.68;3.42;;;13.10;65.80;;;;;;5011794;28;20487;-79
2022/02/18 10:02:59;;;;;;;18.63;4.88;;;13.10;65.70;;;;;;5029256;28;20393;-79
2022/02/18 10:05:26;;;;;;;15.30;3.85;;;13.10;65.50;;;;;;5029256;28;20458;-79
2022/02/18 10:08:22;;;;;;;15.13;3.70;;;13.20;65.50;;;;;;5029668;28;20095;-81
2022/02/18 10:11:06;;;;;;;17.60;3.53;;;13.10;65.00;;;;;;5011765;28;20639;-82
2022/02/18 10:13:37;;;;;;;11.50;3.08;;;13.10;65.00;;;;;;5012557;28;20067;-81
2022/02/18 10:16:09;;;;;;;13.38;3.30;;;13.10;65.00;;;;;;5012067;28;20025;-79
2022/02/18 10:18:53;;;;;;;10.13;3.47;;;13.10;64.90;;;;;;5037884;28;20087;-82
2022/02/18 10:21:19;;;;;;;;;;;13.20;64.80;;;;;;5048976;28;20111;-80
2022/02/18 10:23:46;;;;;;;10.57;2.60;;;13.20;65.00;;;;;;5031353;28;20019;-85
2022/02/18 10:26:12;;;;;;;11.52;2.50;;;13.20;65.00;;;;;;5031813;28;20063;-81
2022/02/18 10:28:55;;;;;;;10.40;3.13;;;13.20;64.80;;;;;;5030969;28;20065;-80
2022/02/18 10:31:21;;;;;;;10.90;3.58;;;13.20;64.50;;;;;;5048582;28;20031;-77
2022/02/18 10:34:02;;;;;;;11.32;3.20;;;13.20;64.60;;;;;;5030742;28;20029;-79
2022/02/18 10:36:42;;;;;;;8.52;2.53;;;13.20;64.50;;;;;;5048800;28;20159;-81
2022/02/18 10:39:28;;;;;;;10.40;3.08;;;13.10;64.30;;;;;;5048225;28;20484;-81
2022/02/18 10:42:02;;;;;;;8.13;2.70;;;13.10;64.30;;;;;;5049314;28;20415;-80
2022/02/18 10:44:30;;;;;;;8.38;2.63;;;13.10;64.40;;;;;;5030845;28;20036;-78
2022/02/18 10:46:57;;;;;;;9.95;2.13;;;13.10;64.30;;;;;;5048392;28;20040;-79
2022/02/18 10:49:26;;;;;;;8.80;2.78;;;13.10;64.30;;;;;;5048746;28;20029;-80
2022/02/18 10:51:53;;;;;;;9.00;2.60;;;13.10;64.30;;;;;;5032893;28;20045;-79
2022/02/18 10:54:31;;;;;;;8.50;2.58;;;13.10;64.40;;;;;;5016729;28;20478;-80
2022/02/18 10:57:12;;;;;;;8.13;2.38;;;13.00;64.30;;;;;;5050585;28;20132;-79
2022/02/18 10:59:38;;;;;;;8.88;3.65;;;12.90;64.30;;;;;;5044244;28;20037;-80
2022/02/18 11:02:04;;;;;;;13.85;3.50;;;12.90;64.60;;;;;;5029817;28;20052;-80
2022/02/18 11:04:30;;;;;;;12.15;3.30;;;12.90;64.60;;;;;;5025715;28;20074;-79
2022/02/18 11:07:18;;;;;;;12.85;4.25;;;12.80;64.50;;;;;;5044995;28;20029;-80
2022/02/18 11:09:46;;;;;;;15.90;3.28;;;12.80;64.60;;;;;;5017292;28;20055;-80
2022/02/18 11:12:13;;;;;;;12.18;3.15;;;12.70;64.60;;;;;;5048851;28;20032;-78
2022/02/18 11:14:41;;;;;;;20.80;5.97;;;12.70;64.70;;;;;;5047845;28;20121;-79
2022/02/18 11:17:09;;;;;;;17.92;4.45;;;12.70;64.80;;;;;;5047621;28;20162;-79
2022/02/18 11:19:36;;;;;;;21.83;4.60;;;12.60;64.60;;;;;;5031122;28;20603;-81
2022/02/18 11:22:02;;;;;;;23.33;5.80;;;12.60;64.80;;;;;;5028616;28;20435;-84
2022/02/18 11:24:29;;;;;;;26.13;6.63;;;12.60;64.90;;;;;;5027882;28;20065;-83
2022/02/18 11:26:59;;;;;;;17.65;5.20;;;12.50;64.90;;;;;;5028367;28;20017;-84
2022/02/18 11:29:26;;;;;;;33.00;6.63;;;12.50;64.90;;;;;;5028289;28;20022;-84
2022/02/18 11:31:58;;;;;;;24.13;8.18;;;12.60;65.00;;;;;;5028306;28;20116;-84
2022/02/18 11:34:49;;;;;;;26.33;6.57;;;12.60;65.10;;;;;;5027987;28;20121;-88
2022/02/18 11:37:53;;;;;;;29.20;7.70;;;12.60;65.20;;;;;;5027517;28;20033;-83
2022/02/18 11:40:35;;;;;;;23.25;5.75;;;12.60;65.10;;;;;;5027498;28;20022;-81
2022/02/18 11:43:30;;;;;;;25.75;7.10;;;12.70;65.00;;;;;;5028526;28;20416;-85
2022/02/18 11:45:57;;;;;;;31.50;9.70;;;12.70;65.00;;;;;;5027600;28;20029;-85
2022/02/18 11:48:47;;;;;;;23.48;6.75;;;12.70;65.20;;;;;;5009896;28;20416;-79
2022/02/18 11:51:15;;;;;;;22.55;6.43;;;12.60;65.00;;;;;;5027713;28;20139;-84
2022/02/18 11:53:49;;;;;;;19.83;5.35;;;12.70;65.30;;;;;;5026608;28;20408;-81
2022/02/18 11:56:27;;;;;;;18.52;4.15;;;12.70;65.40;;;;;;5026995;28;20025;-82
2022/02/18 11:59:02;;;;;;;24.33;5.93;;;12.80;65.60;;;;;;5023569;28;20045;-81
2022/02/18 12:01:48;;;;;;;17.13;3.90;;;12.90;65.60;;;;;;5029088;28;20141;-81
2022/02/18 12:04:17;;;;;;;18.58;5.45;;;12.90;65.40;;;;;;5047464;28;20055;-81
2022/02/18 12:07:15;;;;;;;14.95;4.32;;;13.00;65.50;;;;;;5029555;28;20122;-79
2022/02/18 12:09:50;;;;;;;14.40;3.90;;;13.00;65.40;;;;;;5029606;28;20029;-82
2022/02/18 12:12:21;;;;;;;16.35;3.72;;;13.10;65.50;;;;;;5027970;28;20573;-82
2022/02/18 12:14:48;;;;;;;17.67;3.78;;;13.10;65.30;;;;;;5009388;28;20033;-80
2022/02/18 12:17:18;;;;;;;13.23;3.47;;;13.10;65.30;;;;;;5010297;28;20029;-78
2022/02/18 12:19:46;;;;;;;9.98;2.63;;;13.10;65.20;;;;;;5026788;28;20507;-80
2022/02/18 12:22:12;;;;;;;9.88;2.97;;;13.10;65.70;;;;;;5027085;28;20036;-79
2022/02/18 12:24:46;;;;;;;10.20;2.75;;;13.10;65.10;;;;;;5027316;28;20115;-80
2022/02/18 12:27:32;;;;;;;7.78;3.00;;;13.10;65.20;;;;;;5027601;28;20441;-79
2022/02/18 12:30:00;;;;;;;11.60;2.67;;;13.10;65.40;;;;;;5009306;28;20064;-75
2022/02/18 12:32:26;;;;;;;12.23;3.47;;;13.10;65.90;;;;;;5026437;28;20064;-75
2022/02/18 12:35:05;;;;;;;14.43;3.28;;;13.10;65.20;;;;;;5030993;28;20029;-75
2022/02/18 12:37:33;;;;;;;9.07;2.63;;;13.20;65.70;;;;;;5020725;28;20518;-76
2022/02/18 12:40:04;;;;;;;9.80;2.08;;;13.30;65.30;;;;;;5039575;28;20496;-76
2022/02/18 12:42:31;;;;;;;10.27;2.65;;;13.30;65.20;;;;;;5047315;28;20033;-76
2022/02/18 12:45:00;;;;;;;6.97;3.05;;;13.40;65.20;;;;;;5046965;28;20383;-77
2022/02/18 12:47:29;;;;;;;8.52;2.75;;;13.50;65.20;;;;;;5029114;28;20049;-77
2022/02/18 12:50:01;;;;;;;10.68;2.65;;;13.50;65.00;;;;;;5009626;28;20467;-78